Time;durP1;ratioP1;P1;durP2;ratioP2;P2;SDS_P1;SDS_P2;PMS_P1;PMS_P2;Temp;Humidity;BMP_temperature;BMP_pressure;BME280_temperature;BME280_humidity;BME280_pressure;Samples;Min_cycle;Max_cycle;Signal;HPM_P1;HPM_P2
2022/05/31 00:00:34;;;;;;;0.40;0.40;;;10.90;99.90;;;;;;5021766;28;20499;-80
2022/05/31 00:03:01;;;;;;;1.40;1.20;;;11.00;99.90;;;;;;5027158;28;20037;-81
2022/05/31 00:05:27;;;;;;;0.52;0.52;;;11.00;99.90;;;;;;5011680;28;20026;-81
2022/05/31 00:07:53;;;;;;;0.70;0.65;;;11.00;99.90;;;;;;5019518;28;20041;-80
2022/05/31 00:10:19;;;;;;;1.50;0.30;;;11.00;99.90;;;;;;5015632;28;20033;-81
2022/05/31 00:12:45;;;;;;;0.43;0.43;;;11.10;99.90;;;;;;5009887;28;20033;-81
2022/05/31 00:15:12;;;;;;;0.90;0.63;;;11.10;99.90;;;;;;5009650;28;20037;-81
2022/05/31 00:17:40;;;;;;;6.78;0.57;;;11.10;99.90;;;;;;5020364;28;20590;-81
2022/05/31 00:20:07;;;;;;;0.32;0.32;;;11.10;99.90;;;;;;5012719;28;20702;-81
2022/05/31 00:22:34;;;;;;;0.63;0.60;;;11.10;99.90;;;;;;5012448;28;20042;-81
2022/05/31 00:25:00;;;;;;;1.40;1.30;;;11.10;99.90;;;;;;5018256;28;20034;-81
2022/05/31 00:27:26;;;;;;;0.40;0.40;;;11.10;99.90;;;;;;5014291;28;20049;-80
2022/05/31 00:29:52;;;;;;;1.27;1.17;;;11.20;99.90;;;;;;5018420;28;20044;-81
2022/05/31 00:32:23;;;;;;;1.52;0.57;;;11.20;99.90;;;;;;5014454;28;20396;-81
2022/05/31 00:34:50;;;;;;;0.70;0.70;;;11.20;99.90;;;;;;5008886;28;20592;-81
2022/05/31 00:37:16;;;;;;;0.38;0.35;;;11.20;99.90;;;;;;5016198;28;20079;-80
2022/05/31 00:39:42;;;;;;;1.35;0.70;;;11.20;99.90;;;;;;5025053;28;20113;-80
2022/05/31 00:42:11;;;;;;;0.73;0.73;;;11.20;99.90;;;;;;5013903;28;20178;-81
2022/05/31 00:44:37;;;;;;;0.45;0.32;;;11.20;99.90;;;;;;5012634;28;20053;-81
2022/05/31 00:47:28;;;;;;;1.00;0.80;;;11.20;99.90;;;;;;5021051;28;20452;-81
2022/05/31 00:50:06;;;;;;;1.40;0.50;;;11.20;99.90;;;;;;5030571;28;20515;-81
2022/05/31 00:52:36;;;;;;;2.47;0.70;;;11.20;99.90;;;;;;5021034;28;20381;-81
2022/05/31 00:55:27;;;;;;;3.03;1.23;;;11.20;99.90;;;;;;5015548;28;20175;-81
2022/05/31 00:57:56;;;;;;;;;;;11.20;99.90;;;;;;5017906;28;20022;-81
2022/05/31 01:00:22;;;;;;;1.15;0.20;;;11.20;99.90;;;;;;5014034;28;20047;-81
2022/05/31 01:02:49;;;;;;;0.50;0.35;;;11.20;99.90;;;;;;5023082;28;20109;-81
2022/05/31 01:05:15;;;;;;;1.48;0.70;;;11.20;99.90;;;;;;5017660;28;20040;-81
2022/05/31 01:07:41;;;;;;;0.82;0.55;;;11.20;99.90;;;;;;5017190;28;20165;-81
2022/05/31 01:10:09;;;;;;;0.47;0.47;;;11.30;99.90;;;;;;5012364;28;20117;-81
2022/05/31 01:12:35;;;;;;;0.38;0.38;;;11.30;99.90;;;;;;5012467;28;20030;-81
2022/05/31 01:15:01;;;;;;;0.30;0.30;;;11.20;99.90;;;;;;5011853;28;20492;-80
2022/05/31 01:17:27;;;;;;;0.90;0.70;;;11.20;99.90;;;;;;5021112;28;20434;-81
2022/05/31 01:19:57;;;;;;;2.17;0.65;;;11.30;99.90;;;;;;5014814;28;20029;-80
2022/05/31 01:22:34;;;;;;;0.77;0.55;;;11.30;99.90;;;;;;5023301;28;20022;-81
2022/05/31 01:25:14;;;;;;;1.02;0.90;;;11.30;99.90;;;;;;5019542;28;20048;-81
2022/05/31 01:28:05;;;;;;;0.57;0.57;;;11.40;99.90;;;;;;5012572;28;20040;-80
2022/05/31 01:30:35;;;;;;;0.80;0.80;;;11.40;99.90;;;;;;5013174;28;20045;-81
2022/05/31 01:33:09;;;;;;;0.45;0.45;;;11.30;99.90;;;;;;5024770;28;20025;-81
2022/05/31 01:35:36;;;;;;;0.65;0.50;;;11.30;99.90;;;;;;5014064;28;20037;-81
2022/05/31 01:38:17;;;;;;;0.50;0.50;;;11.30;99.90;;;;;;5025626;28;20076;-81
2022/05/31 01:41:08;;;;;;;0.73;0.60;;;11.30;99.90;;;;;;5013944;28;20014;-80
2022/05/31 01:43:34;;;;;;;0.32;0.32;;;11.30;99.90;;;;;;5004320;28;20036;-80
2022/05/31 01:46:06;;;;;;;0.85;0.45;;;11.30;99.90;;;;;;5017764;28;20033;-80
2022/05/31 01:48:35;;;;;;;0.32;0.30;;;11.30;99.90;;;;;;5012075;28;20042;-81
2022/05/31 01:51:01;;;;;;;0.80;0.60;;;11.30;99.90;;;;;;5020919;28;20030;-81
2022/05/31 01:53:27;;;;;;;0.88;0.80;;;11.30;99.90;;;;;;5015641;28;20026;-81
2022/05/31 01:55:52;;;;;;;0.30;0.28;;;11.30;99.90;;;;;;5019782;28;20443;-80
2022/05/31 01:58:22;;;;;;;0.40;0.40;;;11.30;99.90;;;;;;5027104;28;20026;-81
2022/05/31 02:00:48;;;;;;;0.80;0.80;;;11.20;99.90;;;;;;5015350;28;20030;-80
2022/05/31 02:03:17;;;;;;;0.65;0.65;;;11.10;99.90;;;;;;5025920;28;20029;-80
2022/05/31 02:05:53;;;;;;;0.82;0.60;;;11.10;99.90;;;;;;5017825;28;20049;-81
2022/05/31 02:08:21;;;;;;;0.30;0.30;;;11.00;99.90;;;;;;5018134;28;20030;-80
2022/05/31 02:10:48;;;;;;;0.43;0.43;;;10.90;99.90;;;;;;5013907;28;20029;-80
2022/05/31 02:13:14;;;;;;;1.73;0.80;;;10.80;99.90;;;;;;5013376;28;20025;-80
2022/05/31 02:15:40;;;;;;;0.47;0.47;;;10.70;99.90;;;;;;5014425;28;20032;-80
2022/05/31 02:18:06;;;;;;;0.28;0.28;;;10.70;99.90;;;;;;5028047;28;20034;-80
2022/05/31 02:20:32;;;;;;;0.55;0.40;;;10.60;99.90;;;;;;5014889;28;20053;-80
2022/05/31 02:22:57;;;;;;;0.50;0.50;;;10.50;99.90;;;;;;5020202;28;20030;-81
2022/05/31 02:25:23;;;;;;;0.52;0.50;;;10.50;99.90;;;;;;5014076;28;20129;-80
2022/05/31 02:27:48;;;;;;;0.45;0.40;;;10.40;99.90;;;;;;5016838;28;20034;-81
2022/05/31 02:30:14;;;;;;;0.80;0.73;;;10.40;99.90;;;;;;5029417;28;20037;-80
2022/05/31 02:32:40;;;;;;;1.75;0.38;;;10.30;99.90;;;;;;5014109;28;20035;-80
2022/05/31 02:35:09;;;;;;;0.80;0.50;;;10.20;99.90;;;;;;5009577;28;20034;-81
2022/05/31 02:37:35;;;;;;;0.85;0.30;;;10.20;99.90;;;;;;5019170;28;20054;-80
2022/05/31 02:40:01;;;;;;;0.50;0.50;;;10.10;99.90;;;;;;5015038;28;20037;-80
2022/05/31 02:42:26;;;;;;;0.60;0.60;;;10.10;99.90;;;;;;5024577;28;20491;-80
2022/05/31 02:44:52;;;;;;;0.38;0.38;;;10.10;99.90;;;;;;5011903;28;20593;-80
2022/05/31 02:47:19;;;;;;;0.35;0.35;;;10.10;99.90;;;;;;5010717;28;20477;-80
2022/05/31 02:49:46;;;;;;;0.43;0.43;;;10.10;99.90;;;;;;5009078;28;20908;-80
2022/05/31 02:52:11;;;;;;;0.30;0.30;;;10.00;99.90;;;;;;5011523;28;20022;-80
2022/05/31 02:54:37;;;;;;;0.30;0.30;;;10.10;99.90;;;;;;5017709;28;20027;-80
2022/05/31 02:57:03;;;;;;;1.02;0.55;;;10.20;99.90;;;;;;5027769;28;20049;-80
2022/05/31 02:59:28;;;;;;;0.35;0.35;;;10.20;99.90;;;;;;5014962;28;20559;-80
2022/05/31 03:01:54;;;;;;;0.52;0.52;;;10.20;99.90;;;;;;5015815;28;20032;-80
2022/05/31 03:04:20;;;;;;;0.25;0.20;;;10.30;99.90;;;;;;5015368;28;20037;-80
2022/05/31 03:06:46;;;;;;;0.40;0.40;;;10.30;99.90;;;;;;5012807;28;20060;-80
2022/05/31 03:09:11;;;;;;;0.93;0.68;;;10.30;99.90;;;;;;5018869;28;20041;-80
2022/05/31 03:11:44;;;;;;;1.95;1.13;;;10.30;99.90;;;;;;5017206;28;20033;-80
2022/05/31 03:14:46;;;;;;;0.85;0.50;;;10.40;99.90;;;;;;5015273;28;20084;-81
2022/05/31 03:17:26;;;;;;;0.40;0.40;;;10.40;99.90;;;;;;4964098;28;20049;-80
2022/05/31 03:20:00;;;;;;;0.73;0.30;;;10.50;99.90;;;;;;5004476;28;20439;-81
2022/05/31 03:22:29;;;;;;;0.30;0.30;;;10.60;99.90;;;;;;5022000;28;20028;-80
2022/05/31 03:25:01;;;;;;;0.40;0.40;;;10.60;99.90;;;;;;5018061;28;20040;-80
2022/05/31 03:27:28;;;;;;;0.60;0.60;;;10.60;99.90;;;;;;5015684;28;20022;-80
2022/05/31 03:29:55;;;;;;;0.30;0.30;;;10.70;99.90;;;;;;5010108;28;20052;-80
2022/05/31 03:32:22;;;;;;;0.40;0.40;;;10.70;99.90;;;;;;5015221;28;21121;-80
2022/05/31 03:34:48;;;;;;;0.50;0.50;;;10.70;99.90;;;;;;5011276;28;20088;-80
2022/05/31 03:37:14;;;;;;;0.25;0.15;;;10.70;99.90;;;;;;5013848;28;20029;-80
2022/05/31 03:39:39;;;;;;;0.20;0.20;;;10.80;99.90;;;;;;5014023;28;20029;-80
2022/05/31 03:42:08;;;;;;;0.65;0.55;;;10.80;99.90;;;;;;5008123;28;20030;-80
2022/05/31 03:44:34;;;;;;;0.30;0.30;;;10.80;99.90;;;;;;5010131;28;20026;-80
2022/05/31 03:47:01;;;;;;;1.27;0.50;;;10.80;99.90;;;;;;5017489;28;20117;-80
2022/05/31 03:49:27;;;;;;;0.60;0.60;;;10.90;99.90;;;;;;5017320;28;20029;-80
2022/05/31 03:51:52;;;;;;;1.25;0.25;;;10.90;99.90;;;;;;5016900;28;20044;-80
2022/05/31 03:54:18;;;;;;;1.80;0.65;;;10.90;99.90;;;;;;5013265;28;20034;-80
2022/05/31 03:56:44;;;;;;;3.03;0.50;;;10.90;99.90;;;;;;5021967;28;20515;-80
2022/05/31 03:59:10;;;;;;;0.68;0.60;;;11.00;99.90;;;;;;5010468;28;20397;-80
2022/05/31 04:01:35;;;;;;;0.55;0.32;;;11.00;99.90;;;;;;5012476;28;20026;-80
2022/05/31 04:04:03;;;;;;;0.93;0.50;;;11.00;99.90;;;;;;5015437;28;20133;-80
2022/05/31 04:06:28;;;;;;;1.85;0.98;;;11.10;99.90;;;;;;5014194;28;20025;-81
2022/05/31 04:08:54;;;;;;;0.80;0.80;;;11.10;99.90;;;;;;5024482;28;20516;-80
2022/05/31 04:11:19;;;;;;;0.77;0.52;;;11.10;99.90;;;;;;5017843;28;20441;-79
2022/05/31 04:13:45;;;;;;;0.65;0.65;;;11.20;99.90;;;;;;5012924;28;20022;-80
2022/05/31 04:16:16;;;;;;;0.95;0.77;;;11.20;99.90;;;;;;5027152;28;20021;-80
2022/05/31 04:18:42;;;;;;;1.75;1.45;;;11.30;99.90;;;;;;5016390;28;20030;-80
2022/05/31 04:21:11;;;;;;;1.08;0.98;;;11.20;99.90;;;;;;5021582;28;20034;-80
2022/05/31 04:23:58;;;;;;;2.97;0.90;;;11.30;99.90;;;;;;5018807;28;20025;-80
2022/05/31 04:26:39;;;;;;;1.50;0.98;;;11.30;99.90;;;;;;5020411;28;20034;-80
2022/05/31 04:29:04;;;;;;;1.17;0.40;;;11.40;99.90;;;;;;5016570;28;20077;-80
2022/05/31 04:31:29;;;;;;;1.35;1.02;;;11.50;99.90;;;;;;5012556;28;20018;-80
2022/05/31 04:33:55;;;;;;;0.60;0.60;;;11.50;99.90;;;;;;5015813;28;20108;-80
2022/05/31 04:36:21;;;;;;;1.42;0.65;;;11.50;99.90;;;;;;5023909;28;20025;-80
2022/05/31 04:38:47;;;;;;;0.85;0.63;;;11.50;99.90;;;;;;5017706;28;20021;-80
2022/05/31 04:41:19;;;;;;;0.60;0.60;;;11.50;99.90;;;;;;5022781;28;20065;-80
2022/05/31 04:43:45;;;;;;;1.55;0.40;;;11.50;99.90;;;;;;5013309;28;20109;-80
2022/05/31 04:46:20;;;;;;;0.90;0.55;;;11.50;99.90;;;;;;5017008;28;20471;-80
2022/05/31 04:48:45;;;;;;;0.32;0.32;;;11.50;99.90;;;;;;5019045;28;20026;-80
2022/05/31 04:51:12;;;;;;;1.10;0.90;;;11.50;99.90;;;;;;5024579;28;20034;-80
2022/05/31 04:53:42;;;;;;;1.02;0.85;;;11.50;99.90;;;;;;5024575;28;20018;-80
2022/05/31 04:56:10;;;;;;;0.35;0.28;;;11.50;99.90;;;;;;5018637;28;20439;-80
2022/05/31 04:58:36;;;;;;;0.80;0.80;;;11.60;99.90;;;;;;5013456;28;20028;-80
2022/05/31 05:01:06;;;;;;;0.47;0.47;;;11.70;99.90;;;;;;5021033;28;20030;-79
2022/05/31 05:03:32;;;;;;;0.55;0.40;;;11.70;99.90;;;;;;5016778;28;20030;-84
2022/05/31 05:06:02;;;;;;;0.73;0.50;;;11.80;99.90;;;;;;5020259;28;20388;-86
2022/05/31 05:08:28;;;;;;;1.50;0.83;;;11.90;99.90;;;;;;5019108;28;20160;-85
2022/05/31 05:10:54;;;;;;;1.00;0.90;;;11.90;99.90;;;;;;5020769;28;20118;-86
2022/05/31 05:13:20;;;;;;;1.02;0.63;;;12.00;99.90;;;;;;5019806;28;20496;-86
2022/05/31 05:15:45;;;;;;;1.48;0.90;;;11.90;99.90;;;;;;5025100;28;20125;-86
2022/05/31 05:18:11;;;;;;;0.40;0.40;;;12.00;99.90;;;;;;5014128;28;20046;-85
2022/05/31 05:20:39;;;;;;;0.45;0.45;;;12.00;99.90;;;;;;5020522;28;20397;-80
2022/05/31 05:23:05;;;;;;;0.88;0.55;;;12.00;99.90;;;;;;5018023;28;20485;-80
2022/05/31 05:25:42;;;;;;;1.08;0.45;;;12.00;99.90;;;;;;5016159;28;20033;-84
2022/05/31 05:30:52;;;;;;;0.95;0.38;;;12.10;99.90;;;;;;5015668;28;20107;-84
2022/05/31 05:33:18;;;;;;;0.35;0.30;;;12.10;99.90;;;;;;5030216;28;20476;-82
2022/05/31 05:35:46;;;;;;;0.60;0.30;;;12.20;99.90;;;;;;5015055;28;20450;-84
2022/05/31 05:38:13;;;;;;;1.13;0.63;;;12.20;99.90;;;;;;5015035;28;20041;-81
2022/05/31 05:40:39;;;;;;;0.98;0.60;;;12.20;99.90;;;;;;5015122;28;20484;-78
2022/05/31 05:43:08;;;;;;;0.20;0.20;;;12.30;99.90;;;;;;5024407;28;20053;-82
2022/05/31 05:45:34;;;;;;;0.40;0.40;;;12.30;99.90;;;;;;5020807;28;20091;-77
2022/05/31 05:48:00;;;;;;;0.35;0.35;;;12.30;99.90;;;;;;5013070;28;21654;-82
2022/05/31 05:50:26;;;;;;;1.05;0.57;;;12.30;99.90;;;;;;5015753;28;20053;-78
2022/05/31 05:52:57;;;;;;;1.55;0.40;;;12.40;99.90;;;;;;5019291;28;20611;-82
2022/05/31 05:55:23;;;;;;;0.45;0.45;;;12.40;99.90;;;;;;5013560;28;20095;-78
2022/05/31 05:57:48;;;;;;;1.10;0.65;;;12.50;99.90;;;;;;5013631;28;20025;-77
2022/05/31 06:00:14;;;;;;;0.30;0.30;;;12.60;99.90;;;;;;5018815;28;20025;-80
2022/05/31 06:02:45;;;;;;;0.43;0.38;;;12.60;99.70;;;;;;5013591;28;20030;-84
2022/05/31 06:05:16;;;;;;;0.15;0.15;;;12.60;99.80;;;;;;5021270;28;20034;-84
2022/05/31 06:07:49;;;;;;;1.55;0.98;;;12.60;99.60;;;;;;5017620;28;20388;-79
2022/05/31 06:10:21;;;;;;;0.47;0.47;;;12.70;97.40;;;;;;5016298;28;20064;-78
2022/05/31 06:12:51;;;;;;;;;;;12.70;97.00;;;;;;5017238;28;20032;-79
2022/05/31 06:15:23;;;;;;;1.45;0.75;;;12.70;97.10;;;;;;5015552;28;20023;-79
2022/05/31 06:17:52;;;;;;;0.63;0.60;;;12.70;96.20;;;;;;5017997;28;20537;-77
2022/05/31 06:20:19;;;;;;;1.60;0.73;;;12.70;96.70;;;;;;5014575;28;20034;-80
2022/05/31 06:23:37;;;;;;;0.47;0.40;;;12.80;97.60;;;;;;5016052;28;20047;-81
2022/05/31 06:26:03;;;;;;;0.52;0.52;;;12.80;98.50;;;;;;5006224;28;20037;-81
2022/05/31 06:28:28;;;;;;;0.43;0.43;;;12.80;98.50;;;;;;5018074;28;20068;-81
2022/05/31 06:30:54;;;;;;;0.32;0.32;;;12.90;97.50;;;;;;5013206;28;20051;-81
2022/05/31 06:33:20;;;;;;;0.30;0.30;;;13.00;96.70;;;;;;5018297;28;20037;-79
2022/05/31 06:35:45;;;;;;;0.60;0.60;;;13.00;96.30;;;;;;5014755;28;20026;-80
2022/05/31 06:38:11;;;;;;;0.60;0.60;;;13.00;96.40;;;;;;5028556;28;20029;-80
2022/05/31 06:40:39;;;;;;;0.35;0.35;;;13.10;96.70;;;;;;5015048;28;20116;-79
2022/05/31 06:43:05;;;;;;;0.20;0.20;;;13.00;96.10;;;;;;5030452;28;20075;-77
2022/05/31 06:45:30;;;;;;;0.88;0.60;;;13.00;96.40;;;;;;5015517;28;20480;-77
2022/05/31 06:47:56;;;;;;;0.50;0.50;;;13.10;96.60;;;;;;5013582;28;20104;-84
2022/05/31 06:50:21;;;;;;;0.40;0.40;;;13.20;96.00;;;;;;5020978;28;20046;-79
2022/05/31 06:58:15;;;;;;;0.40;0.32;;;13.30;94.00;;;;;;5013905;28;20129;-78
2022/05/31 07:00:41;;;;;;;0.52;0.50;;;13.40;94.00;;;;;;5011072;28;20112;-77
2022/05/31 07:03:06;;;;;;;2.50;0.70;;;13.50;93.80;;;;;;5010570;28;20025;-77
2022/05/31 07:05:32;;;;;;;0.50;0.43;;;13.50;93.20;;;;;;5018453;28;20022;-77
2022/05/31 07:07:57;;;;;;;0.35;0.35;;;13.50;93.20;;;;;;5025471;28;20034;-77
2022/05/31 07:10:23;;;;;;;2.78;0.70;;;13.50;91.60;;;;;;5017434;28;20029;-77
2022/05/31 07:12:48;;;;;;;0.30;0.30;;;13.60;92.50;;;;;;5029196;28;20065;-77
2022/05/31 07:15:14;;;;;;;0.40;0.40;;;13.70;93.00;;;;;;5020624;28;20025;-78
2022/05/31 07:17:41;;;;;;;0.38;0.35;;;13.80;91.90;;;;;;5009626;28;20033;-77
2022/05/31 07:20:08;;;;;;;0.40;0.40;;;13.80;91.40;;;;;;5009973;28;20105;-77
2022/05/31 07:22:34;;;;;;;6.90;0.45;;;13.80;91.10;;;;;;5009479;28;20044;-77
2022/05/31 07:25:01;;;;;;;2.08;0.80;;;13.80;91.50;;;;;;5027339;28;20112;-77
2022/05/31 07:27:26;;;;;;;6.45;0.50;;;13.90;90.60;;;;;;5019208;28;20122;-78
2022/05/31 07:29:52;;;;;;;0.82;0.68;;;13.90;90.50;;;;;;5010349;28;21009;-77
2022/05/31 07:32:17;;;;;;;0.40;0.40;;;13.90;90.20;;;;;;5007195;28;20037;-77
2022/05/31 07:34:43;;;;;;;1.10;0.50;;;14.00;90.30;;;;;;5008746;28;20037;-77
2022/05/31 07:37:09;;;;;;;0.82;0.82;;;14.20;90.10;;;;;;5014264;28;20108;-87
2022/05/31 07:39:34;;;;;;;0.60;0.50;;;14.40;90.40;;;;;;5011730;28;20030;-80
2022/05/31 07:42:00;;;;;;;0.63;0.45;;;14.50;88.70;;;;;;5029687;28;20449;-79
2022/05/31 07:44:26;;;;;;;0.45;0.35;;;14.80;90.20;;;;;;5028836;28;20105;-78
2022/05/31 07:46:54;;;;;;;1.48;0.77;;;15.00;87.10;;;;;;5022525;28;20033;-79
2022/05/31 07:49:21;;;;;;;0.52;0.52;;;14.90;85.90;;;;;;5012280;28;20104;-79
2022/05/31 07:51:46;;;;;;;1.75;0.75;;;14.90;87.70;;;;;;5025244;28;20080;-86
2022/05/31 07:54:12;;;;;;;0.57;0.47;;;14.90;83.40;;;;;;5031108;28;20049;-84
2022/05/31 07:56:38;;;;;;;0.40;0.40;;;14.80;83.70;;;;;;5028000;28;20045;-87
2022/05/31 07:59:07;;;;;;;0.50;0.50;;;14.80;81.40;;;;;;5023431;28;20030;-85
2022/05/31 08:01:32;;;;;;;0.52;0.40;;;14.70;81.70;;;;;;5021949;28;20034;-80
2022/05/31 08:03:58;;;;;;;0.70;0.57;;;14.60;82.80;;;;;;5008584;28;20096;-80
2022/05/31 08:06:28;;;;;;;0.30;0.30;;;14.50;81.60;;;;;;5008490;28;20146;-80
2022/05/31 08:08:54;;;;;;;0.75;0.38;;;14.50;80.60;;;;;;5009454;28;20048;-80
2022/05/31 08:11:22;;;;;;;0.40;0.40;;;14.50;78.30;;;;;;5008857;28;20034;-79
2022/05/31 08:13:49;;;;;;;1.05;0.40;;;14.60;79.10;;;;;;5011593;28;20025;-80
2022/05/31 08:16:17;;;;;;;3.15;0.55;;;14.60;79.50;;;;;;5027505;28;20028;-80
2022/05/31 08:18:43;;;;;;;5.38;0.40;;;14.70;76.90;;;;;;5021450;28;20025;-80
2022/05/31 08:21:11;;;;;;;1.05;0.32;;;14.90;78.10;;;;;;5012305;28;20496;-78
2022/05/31 08:23:38;;;;;;;3.22;1.20;;;15.10;76.10;;;;;;5009090;28;20041;-78
2022/05/31 08:26:04;;;;;;;0.30;0.22;;;15.20;72.90;;;;;;5012317;28;20064;-80
2022/05/31 08:28:30;;;;;;;2.72;0.80;;;15.10;72.20;;;;;;5010838;28;20053;-79
2022/05/31 08:30:59;;;;;;;0.52;0.50;;;15.00;73.60;;;;;;5026697;28;20043;-79
2022/05/31 08:33:25;;;;;;;0.40;0.40;;;15.00;73.50;;;;;;5030255;28;20025;-80
2022/05/31 08:35:51;;;;;;;0.22;0.22;;;15.20;73.70;;;;;;5021012;28;20847;-78
2022/05/31 08:38:16;;;;;;;0.30;0.30;;;15.20;71.50;;;;;;5008962;28;20033;-79
2022/05/31 08:40:58;;;;;;;3.58;0.43;;;15.40;70.20;;;;;;5016495;28;20021;-78
2022/05/31 08:43:46;;;;;;;0.63;0.57;;;15.50;68.10;;;;;;5024804;28;20026;-80
2022/05/31 08:46:23;;;;;;;1.15;0.98;;;15.70;69.30;;;;;;5027642;28;20120;-78
2022/05/31 08:49:01;;;;;;;0.80;0.32;;;15.80;70.20;;;;;;5025415;28;20728;-80
2022/05/31 08:51:55;;;;;;;0.17;0.17;;;15.70;68.20;;;;;;5028292;28;20499;-80
2022/05/31 08:57:32;;;;;;;0.40;0.40;;;16.00;65.90;;;;;;5024780;28;20072;-79
2022/05/31 09:00:40;;;;;;;0.43;0.43;;;16.10;67.60;;;;;;5016839;28;20068;-76
2022/05/31 09:03:27;;;;;;;0.30;0.30;;;16.10;65.10;;;;;;4964333;28;20479;-78
2022/05/31 09:06:00;;;;;;;0.38;0.22;;;16.10;66.10;;;;;;4959295;28;20587;-78
2022/05/31 09:08:49;;;;;;;0.20;0.20;;;16.40;65.80;;;;;;5003985;28;20555;-79
2022/05/31 09:11:25;;;;;;;0.85;0.60;;;16.70;64.50;;;;;;5011744;28;20026;-79
2022/05/31 09:14:22;;;;;;;0.45;0.43;;;16.90;63.30;;;;;;5007555;28;20026;-78
2022/05/31 09:16:58;;;;;;;0.20;0.20;;;17.10;66.60;;;;;;5014947;28;20037;-78
2022/05/31 09:19:31;;;;;;;0.40;0.30;;;17.30;62.80;;;;;;5016170;28;20021;-78
2022/05/31 09:22:00;;;;;;;0.75;0.50;;;17.20;61.40;;;;;;5009762;28;20045;-79
2022/05/31 09:24:25;;;;;;;0.40;0.40;;;17.10;61.20;;;;;;5014153;28;20049;-77
2022/05/31 09:27:11;;;;;;;1.35;0.65;;;17.00;59.70;;;;;;5010736;28;20069;-78
2022/05/31 09:30:14;;;;;;;0.40;0.25;;;17.00;59.10;;;;;;5010653;28;20041;-77
2022/05/31 09:32:57;;;;;;;0.35;0.35;;;17.00;60.50;;;;;;5015372;28;20032;-78
2022/05/31 09:35:39;;;;;;;0.60;0.60;;;17.30;58.90;;;;;;5015955;28;20030;-76
2022/05/31 09:38:23;;;;;;;0.38;0.32;;;17.80;59.70;;;;;;5021492;28;20022;-77
2022/05/31 09:40:53;;;;;;;0.47;0.30;;;17.60;58.10;;;;;;5019172;28;20108;-77
2022/05/31 09:44:00;;;;;;;0.43;0.40;;;17.80;58.40;;;;;;5027442;28;20122;-78
2022/05/31 09:46:55;;;;;;;0.98;0.55;;;17.50;58.90;;;;;;4992812;28;20042;-77
2022/05/31 09:49:33;;;;;;;0.85;0.50;;;17.60;59.40;;;;;;5013904;28;20018;-78
2022/05/31 09:51:59;;;;;;;0.75;0.60;;;17.60;58.20;;;;;;5015519;28;20036;-78
2022/05/31 09:57:18;;;;;;;0.40;0.40;;;17.00;61.20;;;;;;5012135;28;20080;-77
2022/05/31 09:59:48;;;;;;;0.75;0.75;;;17.10;60.70;;;;;;5022996;28;20038;-77
2022/05/31 10:02:35;;;;;;;1.63;0.45;;;17.20;60.30;;;;;;5017671;28;20092;-77
2022/05/31 10:05:21;;;;;;;0.55;0.43;;;17.50;60.10;;;;;;5011586;28;20045;-75
2022/05/31 10:07:50;;;;;;;0.90;0.57;;;17.50;57.10;;;;;;5011598;28;20049;-76
2022/05/31 10:10:24;;;;;;;2.88;1.17;;;17.60;57.90;;;;;;5016917;28;20048;-77
2022/05/31 10:12:54;;;;;;;0.20;0.20;;;17.60;57.10;;;;;;5013208;28;20057;-79
2022/05/31 10:15:38;;;;;;;0.40;0.40;;;17.60;57.80;;;;;;5013792;28;20439;-77
2022/05/31 10:18:08;;;;;;;1.25;0.40;;;17.60;57.20;;;;;;5013851;28;20032;-80
2022/05/31 10:20:34;;;;;;;1.05;0.65;;;18.00;57.60;;;;;;5014471;28;20029;-77
2022/05/31 10:23:13;;;;;;;0.20;0.20;;;18.30;56.50;;;;;;5011474;28;20384;-77
2022/05/31 10:25:49;;;;;;;0.55;0.50;;;18.20;57.20;;;;;;5010094;28;20044;-77
2022/05/31 10:28:35;;;;;;;1.38;0.40;;;18.40;59.00;;;;;;5010854;28;20056;-78
2022/05/31 10:31:20;;;;;;;0.32;0.30;;;18.50;59.20;;;;;;5012588;28;20052;-78
2022/05/31 10:33:55;;;;;;;0.45;0.45;;;18.80;55.00;;;;;;5021547;28;20022;-80
2022/05/31 10:36:22;;;;;;;0.25;0.25;;;18.80;54.70;;;;;;5023924;28;20092;-81
2022/05/31 10:38:50;;;;;;;0.90;0.90;;;19.10;54.90;;;;;;5013725;28;20018;-78
2022/05/31 10:41:37;;;;;;;4.75;1.05;;;19.70;53.50;;;;;;5023447;28;20033;-76
2022/05/31 10:44:12;;;;;;;0.28;0.28;;;20.10;56.80;;;;;;5020892;28;20026;-75
2022/05/31 10:46:38;;;;;;;0.32;0.32;;;20.60;55.00;;;;;;5013408;28;20049;-75
2022/05/31 10:49:17;;;;;;;0.40;0.40;;;21.10;50.10;;;;;;5018203;28;20037;-77
2022/05/31 10:52:06;;;;;;;0.75;0.40;;;21.20;51.70;;;;;;5028056;28;20048;-76
2022/05/31 10:54:51;;;;;;;1.38;0.52;;;21.00;50.30;;;;;;5023562;28;20021;-76
2022/05/31 10:57:39;;;;;;;1.17;0.55;;;20.90;51.50;;;;;;5023232;28;20030;-76
2022/05/31 11:00:20;;;;;;;0.60;0.50;;;20.90;51.00;;;;;;5015904;28;20088;-76
2022/05/31 11:03:17;;;;;;;0.65;0.65;;;20.60;51.20;;;;;;5010474;28;20037;-76
2022/05/31 11:06:02;;;;;;;6.00;1.08;;;20.50;52.10;;;;;;5016281;28;20079;-76
2022/05/31 11:11:58;;;;;;;0.77;0.50;;;20.60;50.80;;;;;;5010154;28;20463;-76
2022/05/31 11:15:01;;;;;;;0.40;0.40;;;21.20;50.60;;;;;;5021500;28;20037;-77
2022/05/31 11:17:52;;;;;;;1.52;0.75;;;21.10;49.40;;;;;;5036270;28;20033;-77
2022/05/31 11:20:37;;;;;;;0.98;0.75;;;21.10;52.30;;;;;;5009076;28;20384;-78
2022/05/31 11:23:21;;;;;;;0.50;0.50;;;20.80;48.90;;;;;;5016732;28;20033;-76
2022/05/31 11:26:13;;;;;;;3.25;0.85;;;20.30;50.60;;;;;;5011528;28;20040;-76
2022/05/31 11:28:47;;;;;;;1.48;0.80;;;20.30;50.30;;;;;;5020727;28;20049;-76
2022/05/31 11:31:16;;;;;;;1.58;0.40;;;20.90;51.70;;;;;;5017998;28;20029;-76
2022/05/31 11:34:19;;;;;;;2.25;0.82;;;21.60;49.20;;;;;;5010148;28;20022;-77
2022/05/31 11:37:11;;;;;;;0.73;0.60;;;22.40;48.40;;;;;;5020208;28;20113;-82
2022/05/31 11:40:04;;;;;;;0.77;0.60;;;22.00;48.70;;;;;;5010852;28;20127;-77
2022/05/31 11:43:08;;;;;;;0.70;0.70;;;21.90;48.10;;;;;;5009365;28;20053;-76
2022/05/31 11:45:57;;;;;;;2.22;0.77;;;22.00;47.60;;;;;;5021721;28;20044;-77
2022/05/31 11:49:00;;;;;;;0.60;0.50;;;22.00;46.80;;;;;;5013614;28;20025;-77
2022/05/31 11:51:51;;;;;;;0.93;0.68;;;22.00;48.90;;;;;;5017612;28;20128;-77
2022/05/31 11:58:15;;;;;;;0.40;0.40;;;22.90;49.30;;;;;;5024324;28;20091;-76
2022/05/31 12:01:02;;;;;;;0.40;0.40;;;23.50;48.60;;;;;;5010083;28;20048;-76
2022/05/31 12:04:04;;;;;;;0.40;0.40;;;23.70;43.90;;;;;;5017433;28;20128;-76
2022/05/31 12:06:50;;;;;;;1.30;0.85;;;23.60;43.90;;;;;;5017103;28;20034;-76
2022/05/31 12:09:27;;;;;;;1.10;0.73;;;23.50;43.00;;;;;;5014414;28;20061;-76
2022/05/31 12:12:02;;;;;;;0.60;0.60;;;23.60;43.30;;;;;;5017953;28;20037;-77
2022/05/31 12:14:29;;;;;;;0.90;0.80;;;24.50;44.00;;;;;;5026036;28;20029;-77
2022/05/31 12:16:55;;;;;;;0.60;0.60;;;25.60;43.30;;;;;;5032068;28;20034;-77
2022/05/31 12:19:45;;;;;;;2.28;1.25;;;26.00;42.90;;;;;;5016956;28;20029;-76
2022/05/31 12:22:20;;;;;;;1.23;0.85;;;25.60;40.20;;;;;;5013024;28;20026;-77
2022/05/31 12:25:04;;;;;;;2.08;1.05;;;25.40;41.00;;;;;;5013523;28;20060;-84
2022/05/31 12:27:40;;;;;;;3.45;1.52;;;25.50;41.50;;;;;;5016104;28;20105;-83
2022/05/31 12:30:28;;;;;;;0.82;0.73;;;25.10;41.00;;;;;;5011821;28;20053;-82
2022/05/31 12:32:54;;;;;;;0.68;0.68;;;24.80;42.60;;;;;;5022506;28;20066;-82
2022/05/31 12:35:32;;;;;;;0.85;0.50;;;24.40;41.40;;;;;;5021547;28;20068;-83
2022/05/31 12:38:00;;;;;;;2.20;0.70;;;23.90;43.10;;;;;;5018783;28;20045;-87
2022/05/31 12:40:34;;;;;;;0.50;0.50;;;22.90;43.10;;;;;;5020783;28;20026;-84
2022/05/31 12:43:09;;;;;;;0.60;0.60;;;22.80;45.60;;;;;;5017580;28;20503;-79
2022/05/31 12:45:34;;;;;;;0.55;0.55;;;22.30;45.70;;;;;;5018254;28;20092;-80
2022/05/31 12:48:14;;;;;;;1.05;0.60;;;23.80;48.40;;;;;;5015521;28;20472;-79
2022/05/31 12:50:48;;;;;;;1.50;0.80;;;24.60;44.60;;;;;;5010358;28;20113;-79
2022/05/31 12:53:21;;;;;;;1.17;0.70;;;25.60;39.80;;;;;;5011965;28;20037;-76
2022/05/31 12:55:58;;;;;;;0.75;0.60;;;25.80;40.50;;;;;;5016672;28;20484;-77
2022/05/31 12:58:35;;;;;;;0.65;0.65;;;25.00;40.80;;;;;;5016887;28;20108;-76
2022/05/31 13:01:06;;;;;;;1.15;0.73;;;24.30;41.50;;;;;;5019786;28;20033;-78
2022/05/31 13:03:36;;;;;;;0.60;0.60;;;23.90;43.70;;;;;;5019508;28;20468;-78
2022/05/31 13:06:11;;;;;;;1.10;0.90;;;23.40;44.40;;;;;;5017514;28;21280;-80
2022/05/31 13:20:13;;;;;;;0.82;0.80;;;28.50;35.10;;;;;;5014452;28;20041;-79
2022/05/31 13:22:45;;;;;;;0.60;0.60;;;26.20;37.90;;;;;;5026793;28;20292;-79
2022/05/31 13:25:43;;;;;;;1.02;0.80;;;25.70;38.60;;;;;;5025865;28;20038;-80
2022/05/31 13:28:43;;;;;;;0.80;0.63;;;27.50;39.40;;;;;;5009556;28;20461;-79
2022/05/31 13:31:22;;;;;;;0.60;0.60;;;27.30;39.30;;;;;;4977506;28;20128;-78
2022/05/31 13:34:09;;;;;;;1.95;1.13;;;27.50;38.90;;;;;;5019144;28;20071;-79
2022/05/31 13:36:47;;;;;;;0.93;0.60;;;29.30;36.20;;;;;;5010135;28;20041;-79
2022/05/31 13:39:16;;;;;;;0.60;0.60;;;28.10;36.90;;;;;;5017848;28;20025;-79
2022/05/31 13:41:51;;;;;;;0.80;0.80;;;27.50;38.20;;;;;;5012965;28;21477;-80
2022/05/31 13:44:23;;;;;;;0.73;0.73;;;26.40;39.00;;;;;;5012082;28;20404;-79
2022/05/31 13:46:50;;;;;;;2.20;1.10;;;25.30;42.30;;;;;;5012066;28;20030;-79